sensor_id;sensor_type;location;lat;lon;timestamp;temperature;humidity
1011;DHT22;494;48.744;10.106;2023-04-01T00:27:21;9.60;50.80
1011;DHT22;494;48.744;10.106;2023-04-01T00:30:26;9.70;50.70
1011;DHT22;494;48.744;10.106;2023-04-01T00:33:02;9.70;50.40
1011;DHT22;494;48.744;10.106;2023-04-01T00:35:36;9.80;50.00
1011;DHT22;494;48.744;10.106;2023-04-01T00:38:08;9.90;50.00
1011;DHT22;494;48.744;10.106;2023-04-01T00:41:50;9.90;48.90
1011;DHT22;494;48.744;10.106;2023-04-01T00:44:20;9.70;47.50
1011;DHT22;494;48.744;10.106;2023-04-01T00:46:52;9.70;48.90
1011;DHT22;494;48.744;10.106;2023-04-01T00:49:24;9.90;48.90
1011;DHT22;494;48.744;10.106;2023-04-01T00:52:01;9.90;48.40
1011;DHT22;494;48.744;10.106;2023-04-01T00:54:33;9.90;47.90
1011;DHT22;494;48.744;10.106;2023-04-01T00:57:06;9.90;48.00
1011;DHT22;494;48.744;10.106;2023-04-01T00:59:43;9.90;48.40
1011;DHT22;494;48.744;10.106;2023-04-01T01:02:14;9.90;48.20
1011;DHT22;494;48.744;10.106;2023-04-01T01:04:43;9.70;48.00
1011;DHT22;494;48.744;10.106;2023-04-01T01:07:20;9.80;48.80
1011;DHT22;494;48.744;10.106;2023-04-01T01:10:02;9.90;49.00
1011;DHT22;494;48.744;10.106;2023-04-01T01:12:40;10.00;47.80
1011;DHT22;494;48.744;10.106;2023-04-01T01:15:20;10.10;48.00
1011;DHT22;494;48.744;10.106;2023-04-01T01:17:58;10.00;47.50
1011;DHT22;494;48.744;10.106;2023-04-01T01:20:56;10.10;47.90
1011;DHT22;494;48.744;10.106;2023-04-01T01:24:30;10.20;46.10
1011;DHT22;494;48.744;10.106;2023-04-01T01:27:11;10.20;47.00
1011;DHT22;494;48.744;10.106;2023-04-01T01:30:19;10.20;46.40
1011;DHT22;494;48.744;10.106;2023-04-01T01:33:13;10.30;45.90
1011;DHT22;494;48.744;10.106;2023-04-01T01:36:03;10.30;45.50
1011;DHT22;494;48.744;10.106;2023-04-01T01:38:35;10.30;45.60
1011;DHT22;494;48.744;10.106;2023-04-01T01:41:07;10.20;45.70
1011;DHT22;494;48.744;10.106;2023-04-01T01:43:40;10.10;46.20
1011;DHT22;494;48.744;10.106;2023-04-01T01:46:17;10.20;46.70
1011;DHT22;494;48.744;10.106;2023-04-01T01:48:53;10.20;46.60
1011;DHT22;494;48.744;10.106;2023-04-01T01:51:26;10.10;46.20
1011;DHT22;494;48.744;10.106;2023-04-01T01:53:56;10.10;47.20
1011;DHT22;494;48.744;10.106;2023-04-01T01:56:28;9.90;46.90
1011;DHT22;494;48.744;10.106;2023-04-01T01:59:02;9.90;47.70
1011;DHT22;494;48.744;10.106;2023-04-01T02:01:37;9.90;47.00
1011;DHT22;494;48.744;10.106;2023-04-01T02:04:09;9.60;45.70
1011;DHT22;494;48.744;10.106;2023-04-01T02:06:47;9.50;46.70
1011;DHT22;494;48.744;10.106;2023-04-01T02:09:21;9.60;47.50
1011;DHT22;494;48.744;10.106;2023-04-01T02:11:52;9.40;47.80
1011;DHT22;494;48.744;10.106;2023-04-01T02:14:27;9.40;47.60
1011;DHT22;494;48.744;10.106;2023-04-01T02:17:03;9.50;47.00
1011;DHT22;494;48.744;10.106;2023-04-01T02:19:39;9.50;46.90
1011;DHT22;494;48.744;10.106;2023-04-01T02:22:16;9.50;47.40
1011;DHT22;494;48.744;10.106;2023-04-01T02:24:50;9.50;48.30
1011;DHT22;494;48.744;10.106;2023-04-01T02:27:20;9.50;48.40
1011;DHT22;494;48.744;10.106;2023-04-01T02:29:50;9.50;48.40
1011;DHT22;494;48.744;10.106;2023-04-01T02:32:19;9.60;47.40
1011;DHT22;494;48.744;10.106;2023-04-01T02:34:49;9.60;48.40
1011;DHT22;494;48.744;10.106;2023-04-01T02:37:21;9.60;48.20
1011;DHT22;494;48.744;10.106;2023-04-01T02:39:50;9.50;48.70
1011;DHT22;494;48.744;10.106;2023-04-01T02:42:22;9.40;49.70
1011;DHT22;494;48.744;10.106;2023-04-01T02:44:51;9.30;50.60
1011;DHT22;494;48.744;10.106;2023-04-01T02:47:20;9.40;50.40
1011;DHT22;494;48.744;10.106;2023-04-01T02:49:49;9.60;49.60
1011;DHT22;494;48.744;10.106;2023-04-01T02:52:26;9.40;48.10
1011;DHT22;494;48.744;10.106;2023-04-01T02:54:57;9.30;47.00
1011;DHT22;494;48.744;10.106;2023-04-01T02:57:27;9.20;48.40
1011;DHT22;494;48.744;10.106;2023-04-01T02:59:56;9.10;47.70
1011;DHT22;494;48.744;10.106;2023-04-01T03:02:26;9.10;48.40
1011;DHT22;494;48.744;10.106;2023-04-01T03:04:55;9.30;48.30
1011;DHT22;494;48.744;10.106;2023-04-01T03:07:25;9.30;46.80
1011;DHT22;494;48.744;10.106;2023-04-01T03:09:54;9.30;46.80
1011;DHT22;494;48.744;10.106;2023-04-01T03:12:23;9.20;47.50
1011;DHT22;494;48.744;10.106;2023-04-01T03:14:53;9.30;48.20
1011;DHT22;494;48.744;10.106;2023-04-01T03:17:22;9.20;47.40
1011;DHT22;494;48.744;10.106;2023-04-01T03:19:51;9.20;48.10
1011;DHT22;494;48.744;10.106;2023-04-01T03:22:20;9.10;47.90
1011;DHT22;494;48.744;10.106;2023-04-01T03:24:51;9.00;48.20
1011;DHT22;494;48.744;10.106;2023-04-01T03:27:20;9.00;47.80
1011;DHT22;494;48.744;10.106;2023-04-01T03:29:48;9.10;47.60
1011;DHT22;494;48.744;10.106;2023-04-01T03:32:18;8.90;46.80
1011;DHT22;494;48.744;10.106;2023-04-01T03:34:47;8.90;47.20
1011;DHT22;494;48.744;10.106;2023-04-01T03:37:16;8.90;47.10
1011;DHT22;494;48.744;10.106;2023-04-01T03:39:45;9.00;46.80
1011;DHT22;494;48.744;10.106;2023-04-01T03:42:16;9.00;45.90
1011;DHT22;494;48.744;10.106;2023-04-01T03:44:46;8.90;46.10
1011;DHT22;494;48.744;10.106;2023-04-01T03:47:14;8.80;44.90
1011;DHT22;494;48.744;10.106;2023-04-01T03:49:43;8.90;44.80
1011;DHT22;494;48.744;10.106;2023-04-01T03:52:13;9.00;44.70
1011;DHT22;494;48.744;10.106;2023-04-01T03:54:42;9.10;44.00
1011;DHT22;494;48.744;10.106;2023-04-01T03:57:12;9.00;44.00
1011;DHT22;494;48.744;10.106;2023-04-01T03:59:43;8.90;43.90
1011;DHT22;494;48.744;10.106;2023-04-01T04:02:12;8.80;43.90
1011;DHT22;494;48.744;10.106;2023-04-01T04:04:41;9.00;44.20
1011;DHT22;494;48.744;10.106;2023-04-01T04:07:11;9.10;43.10
1011;DHT22;494;48.744;10.106;2023-04-01T04:09:40;9.30;42.50
1011;DHT22;494;48.744;10.106;2023-04-01T04:12:09;9.00;41.30
1011;DHT22;494;48.744;10.106;2023-04-01T04:14:38;8.70;42.90
1011;DHT22;494;48.744;10.106;2023-04-01T04:17:10;8.70;43.50
1011;DHT22;494;48.744;10.106;2023-04-01T04:19:43;8.70;42.90
1011;DHT22;494;48.744;10.106;2023-04-01T04:22:12;8.90;43.00
1011;DHT22;494;48.744;10.106;2023-04-01T04:24:41;8.90;43.00
1011;DHT22;494;48.744;10.106;2023-04-01T04:27:10;9.00;42.00
1011;DHT22;494;48.744;10.106;2023-04-01T04:29:39;9.00;40.80
1011;DHT22;494;48.744;10.106;2023-04-01T04:32:09;9.00;41.90
1011;DHT22;494;48.744;10.106;2023-04-01T04:34:38;9.20;41.60
1011;DHT22;494;48.744;10.106;2023-04-01T04:37:07;9.30;40.30
1011;DHT22;494;48.744;10.106;2023-04-01T04:39:37;9.30;39.20
1011;DHT22;494;48.744;10.106;2023-04-01T04:42:06;9.00;40.40
1011;DHT22;494;48.744;10.106;2023-04-01T04:44:34;8.80;40.90
1011;DHT22;494;48.744;10.106;2023-04-01T04:47:03;8.80;40.60
1011;DHT22;494;48.744;10.106;2023-04-01T04:49:34;9.00;40.30
1011;DHT22;494;48.744;10.106;2023-04-01T04:52:03;9.10;40.10
1011;DHT22;494;48.744;10.106;2023-04-01T04:54:32;9.20;40.10
1011;DHT22;494;48.744;10.106;2023-04-01T04:57:02;9.20;39.40
1011;DHT22;494;48.744;10.106;2023-04-01T04:59:31;9.20;38.90
1011;DHT22;494;48.744;10.106;2023-04-01T05:02:01;9.20;39.10
1011;DHT22;494;48.744;10.106;2023-04-01T05:04:36;9.10;39.40
1011;DHT22;494;48.744;10.106;2023-04-01T05:07:05;8.90;39.60
1011;DHT22;494;48.744;10.106;2023-04-01T05:09:35;9.20;39.80
1011;DHT22;494;48.744;10.106;2023-04-01T05:12:05;9.50;39.90
1011;DHT22;494;48.744;10.106;2023-04-01T05:14:35;9.70;39.30
1011;DHT22;494;48.744;10.106;2023-04-01T05:17:09;9.80;38.70
1011;DHT22;494;48.744;10.106;2023-04-01T05:19:41;9.80;38.90
1011;DHT22;494;48.744;10.106;2023-04-01T05:22:11;9.90;38.00
1011;DHT22;494;48.744;10.106;2023-04-01T05:24:41;9.90;37.80
1011;DHT22;494;48.744;10.106;2023-04-01T05:27:11;9.90;37.30
1011;DHT22;494;48.744;10.106;2023-04-01T05:29:40;10.00;37.80
1011;DHT22;494;48.744;10.106;2023-04-01T05:32:10;10.00;37.40
1011;DHT22;494;48.744;10.106;2023-04-01T05:34:42;9.90;36.90
1011;DHT22;494;48.744;10.106;2023-04-01T05:37:11;9.70;37.30
1011;DHT22;494;48.744;10.106;2023-04-01T05:39:42;10.00;37.90
1011;DHT22;494;48.744;10.106;2023-04-01T05:42:11;9.90;37.10
1011;DHT22;494;48.744;10.106;2023-04-01T05:44:41;10.00;37.40
1011;DHT22;494;48.744;10.106;2023-04-01T05:47:10;10.10;37.40
1011;DHT22;494;48.744;10.106;2023-04-01T05:49:40;10.10;37.10
1011;DHT22;494;48.744;10.106;2023-04-01T05:52:10;10.20;36.50
1011;DHT22;494;48.744;10.106;2023-04-01T05:54:39;10.10;36.90
1011;DHT22;494;48.744;10.106;2023-04-01T05:57:08;10.10;37.50
1011;DHT22;494;48.744;10.106;2023-04-01T05:59:37;10.00;37.90
1011;DHT22;494;48.744;10.106;2023-04-01T06:02:08;10.00;38.20
1011;DHT22;494;48.744;10.106;2023-04-01T06:04:39;9.90;38.30
1011;DHT22;494;48.744;10.106;2023-04-01T06:07:11;9.90;39.20
1011;DHT22;494;48.744;10.106;2023-04-01T06:09:42;9.90;38.30
1011;DHT22;494;48.744;10.106;2023-04-01T06:12:36;9.80;39.00
1011;DHT22;494;48.744;10.106;2023-04-01T06:15:20;9.90;39.40
1011;DHT22;494;48.744;10.106;2023-04-01T06:18:07;10.00;39.00
1011;DHT22;494;48.744;10.106;2023-04-01T06:21:07;10.10;38.90
1011;DHT22;494;48.744;10.106;2023-04-01T06:23:58;10.10;38.80
1011;DHT22;494;48.744;10.106;2023-04-01T06:26:45;10.10;39.30
1011;DHT22;494;48.744;10.106;2023-04-01T06:29:34;10.10;39.20
1011;DHT22;494;48.744;10.106;2023-04-01T06:32:49;10.10;38.10
1011;DHT22;494;48.744;10.106;2023-04-01T06:35:35;10.00;38.10
1011;DHT22;494;48.744;10.106;2023-04-01T06:38:51;10.00;38.80
1011;DHT22;494;48.744;10.106;2023-04-01T06:45:27;10.40;38.20
1011;DHT22;494;48.744;10.106;2023-04-01T06:48:12;10.60;37.60
1011;DHT22;494;48.744;10.106;2023-04-01T06:50:54;10.90;36.60
1011;DHT22;494;48.744;10.106;2023-04-01T06:53:33;11.00;36.90
1011;DHT22;494;48.744;10.106;2023-04-01T06:56:18;10.90;34.80
1011;DHT22;494;48.744;10.106;2023-04-01T06:58:52;11.20;35.70
1011;DHT22;494;48.744;10.106;2023-04-01T07:01:29;11.40;35.00
1011;DHT22;494;48.744;10.106;2023-04-01T07:04:06;11.30;33.30
1011;DHT22;494;48.744;10.106;2023-04-01T07:06:46;11.30;35.00
1011;DHT22;494;48.744;10.106;2023-04-01T07:09:24;11.30;34.30
1011;DHT22;494;48.744;10.106;2023-04-01T07:12:02;11.60;33.90
1011;DHT22;494;48.744;10.106;2023-04-01T07:14:41;11.60;34.30
1011;DHT22;494;48.744;10.106;2023-04-01T07:17:14;11.60;33.90
1011;DHT22;494;48.744;10.106;2023-04-01T07:19:52;11.60;33.50
1011;DHT22;494;48.744;10.106;2023-04-01T07:22:31;11.50;33.80
1011;DHT22;494;48.744;10.106;2023-04-01T07:25:08;11.00;32.50
1011;DHT22;494;48.744;10.106;2023-04-01T07:27:43;11.10;34.70
1011;DHT22;494;48.744;10.106;2023-04-01T07:30:15;10.80;34.80
1011;DHT22;494;48.744;10.106;2023-04-01T07:32:49;10.80;35.40
1011;DHT22;494;48.744;10.106;2023-04-01T07:35:27;10.80;34.70
1011;DHT22;494;48.744;10.106;2023-04-01T07:41:01;10.80;34.60
1011;DHT22;494;48.744;10.106;2023-04-01T07:43:56;10.70;34.90
1011;DHT22;494;48.744;10.106;2023-04-01T07:46:41;10.80;35.20
1011;DHT22;494;48.744;10.106;2023-04-01T07:49:24;10.50;36.30
1011;DHT22;494;48.744;10.106;2023-04-01T07:52:03;10.30;37.70
1011;DHT22;494;48.744;10.106;2023-04-01T07:54:42;10.20;37.90
1011;DHT22;494;48.744;10.106;2023-04-01T07:57:20;10.50;39.40
1011;DHT22;494;48.744;10.106;2023-04-01T08:00:00;10.50;40.50
1011;DHT22;494;48.744;10.106;2023-04-01T08:02:46;10.50;41.00
1011;DHT22;494;48.744;10.106;2023-04-01T08:05:28;10.40;41.70
1011;DHT22;494;48.744;10.106;2023-04-01T08:08:06;10.40;42.80
1011;DHT22;494;48.744;10.106;2023-04-01T08:10:48;10.40;43.30
1011;DHT22;494;48.744;10.106;2023-04-01T08:13:30;10.40;43.30
1011;DHT22;494;48.744;10.106;2023-04-01T08:16:16;10.30;45.10
1011;DHT22;494;48.744;10.106;2023-04-01T08:18:57;10.30;46.40
1011;DHT22;494;48.744;10.106;2023-04-01T08:21:38;10.30;46.20
1011;DHT22;494;48.744;10.106;2023-04-01T08:24:25;10.40;46.80
1011;DHT22;494;48.744;10.106;2023-04-01T11:51:56;11.50;51.40
1011;DHT22;494;48.744;10.106;2023-04-01T11:58:13;11.70;51.30
1011;DHT22;494;48.744;10.106;2023-04-01T12:01:19;11.70;48.40
1011;DHT22;494;48.744;10.106;2023-04-01T12:07:17;11.50;50.70
1011;DHT22;494;48.744;10.106;2023-04-01T12:09:58;11.70;50.10
1011;DHT22;494;48.744;10.106;2023-04-01T12:12:42;11.80;50.30
1011;DHT22;494;48.744;10.106;2023-04-01T12:15:48;11.70;49.30
1011;DHT22;494;48.744;10.106;2023-04-01T12:18:33;11.60;51.40
1011;DHT22;494;48.744;10.106;2023-04-01T12:21:17;11.90;51.10
1011;DHT22;494;48.744;10.106;2023-04-01T12:27:23;12.00;49.30
1011;DHT22;494;48.744;10.106;2023-04-01T12:30:24;12.20;50.10
1011;DHT22;494;48.744;10.106;2023-04-01T12:36:42;12.50;48.50
1011;DHT22;494;48.744;10.106;2023-04-01T14:35:21;12.00;47.50
1011;DHT22;494;48.744;10.106;2023-04-01T14:44:00;12.00;47.50
1011;DHT22;494;48.744;10.106;2023-04-01T14:48:16;11.70;48.00
1011;DHT22;494;48.744;10.106;2023-04-01T14:51:51;11.50;50.00
1011;DHT22;494;48.744;10.106;2023-04-01T14:54:31;11.60;49.40
1011;DHT22;494;48.744;10.106;2023-04-01T14:57:12;11.60;48.60
1011;DHT22;494;48.744;10.106;2023-04-01T15:00:17;11.60;48.40
1011;DHT22;494;48.744;10.106;2023-04-01T15:40:36;10.70;51.90
1011;DHT22;494;48.744;10.106;2023-04-01T16:19:36;10.60;49.50
1011;DHT22;494;48.744;10.106;2023-04-01T16:36:50;10.70;51.90
1011;DHT22;494;48.744;10.106;2023-04-01T17:37:27;10.00;54.30
1011;DHT22;494;48.744;10.106;2023-04-01T17:40:19;10.00;53.80
1011;DHT22;494;48.744;10.106;2023-04-01T17:43:05;10.00;53.80
1011;DHT22;494;48.744;10.106;2023-04-01T17:45:47;10.10;54.10
1011;DHT22;494;48.744;10.106;2023-04-01T17:48:29;10.00;53.20
1011;DHT22;494;48.744;10.106;2023-04-01T17:51:19;10.10;53.70
1011;DHT22;494;48.744;10.106;2023-04-01T17:54:05;10.20;53.90
1011;DHT22;494;48.744;10.106;2023-04-01T17:56:52;10.30;54.00
1011;DHT22;494;48.744;10.106;2023-04-01T17:59:35;10.50;53.30
1011;DHT22;494;48.744;10.106;2023-04-01T18:02:20;10.40;52.40
1011;DHT22;494;48.744;10.106;2023-04-01T18:05:23;10.40;53.10
1011;DHT22;494;48.744;10.106;2023-04-01T18:08:12;10.50;52.70
1011;DHT22;494;48.744;10.106;2023-04-01T18:10:57;10.40;51.70
1011;DHT22;494;48.744;10.106;2023-04-01T18:13:46;10.20;51.80
1011;DHT22;494;48.744;10.106;2023-04-01T18:16:55;10.20;52.40
1011;DHT22;494;48.744;10.106;2023-04-01T18:19:39;10.40;52.60
1011;DHT22;494;48.744;10.106;2023-04-01T18:22:28;10.50;52.30
1011;DHT22;494;48.744;10.106;2023-04-01T18:25:20;10.50;51.70
1011;DHT22;494;48.744;10.106;2023-04-01T18:28:24;10.60;51.70
1011;DHT22;494;48.744;10.106;2023-04-01T18:31:17;10.60;51.10
1011;DHT22;494;48.744;10.106;2023-04-01T18:33:56;10.60;50.60
1011;DHT22;494;48.744;10.106;2023-04-01T18:36:38;10.60;50.30
1011;DHT22;494;48.744;10.106;2023-04-01T18:39:15;10.60;50.30
1011;DHT22;494;48.744;10.106;2023-04-01T18:41:54;10.70;49.90
1011;DHT22;494;48.744;10.106;2023-04-01T18:44:41;10.70;50.00
1011;DHT22;494;48.744;10.106;2023-04-01T18:47:21;10.70;49.80
1011;DHT22;494;48.744;10.106;2023-04-01T18:49:59;10.80;49.70
1011;DHT22;494;48.744;10.106;2023-04-01T18:52:36;10.80;49.50
1011;DHT22;494;48.744;10.106;2023-04-01T18:55:29;10.80;49.40
1011;DHT22;494;48.744;10.106;2023-04-01T18:58:22;10.90;49.40
1011;DHT22;494;48.744;10.106;2023-04-01T19:01:16;11.00;49.30
1011;DHT22;494;48.744;10.106;2023-04-01T19:04:00;10.90;48.90
1011;DHT22;494;48.744;10.106;2023-04-01T19:06:44;10.90;48.90
1011;DHT22;494;48.744;10.106;2023-04-01T19:09:19;10.90;49.10
1011;DHT22;494;48.744;10.106;2023-04-01T19:12:24;10.90;49.10
1011;DHT22;494;48.744;10.106;2023-04-01T19:15:13;11.00;49.10
1011;DHT22;494;48.744;10.106;2023-04-01T19:18:22;11.00;49.00
1011;DHT22;494;48.744;10.106;2023-04-01T19:21:02;11.00;49.10
1011;DHT22;494;48.744;10.106;2023-04-01T19:24:09;11.00;49.10
1011;DHT22;494;48.744;10.106;2023-04-01T19:27:10;11.00;49.40
1011;DHT22;494;48.744;10.106;2023-04-01T19:29:56;10.90;49.60
1011;DHT22;494;48.744;10.106;2023-04-01T19:32:45;10.80;49.80
1011;DHT22;494;48.744;10.106;2023-04-01T19:35:29;10.80;50.10
1011;DHT22;494;48.744;10.106;2023-04-01T19:38:14;10.90;50.50
1011;DHT22;494;48.744;10.106;2023-04-01T19:40:54;10.80;49.80
1011;DHT22;494;48.744;10.106;2023-04-01T19:43:42;10.70;50.30
1011;DHT22;494;48.744;10.106;2023-04-01T19:46:22;10.70;50.30
1011;DHT22;494;48.744;10.106;2023-04-01T19:49:18;10.70;49.90
1011;DHT22;494;48.744;10.106;2023-04-01T19:52:00;10.60;49.50
1011;DHT22;494;48.744;10.106;2023-04-01T19:54:42;10.40;49.70
1011;DHT22;494;48.744;10.106;2023-04-01T19:57:24;10.30;49.80
1011;DHT22;494;48.744;10.106;2023-04-01T20:00:06;10.10;50.20
1011;DHT22;494;48.744;10.106;2023-04-01T20:02:56;9.90;50.70
1011;DHT22;494;48.744;10.106;2023-04-01T20:05:47;9.90;51.60
1011;DHT22;494;48.744;10.106;2023-04-01T20:08:28;9.70;52.10
1011;DHT22;494;48.744;10.106;2023-04-01T20:11:18;9.60;51.70
1011;DHT22;494;48.744;10.106;2023-04-01T20:14:09;9.70;52.80
1011;DHT22;494;48.744;10.106;2023-04-01T20:16:52;9.70;52.80
1011;DHT22;494;48.744;10.106;2023-04-01T20:19:35;9.50;51.80
1011;DHT22;494;48.744;10.106;2023-04-01T20:22:16;9.30;53.20
1011;DHT22;494;48.744;10.106;2023-04-01T20:25:11;9.30;53.30
1011;DHT22;494;48.744;10.106;2023-04-01T20:27:50;9.30;53.60
1011;DHT22;494;48.744;10.106;2023-04-01T20:30:34;9.60;53.40
1011;DHT22;494;48.744;10.106;2023-04-01T20:36:46;9.80;51.60
1011;DHT22;494;48.744;10.106;2023-04-01T20:42:57;9.90;50.70
1011;DHT22;494;48.744;10.106;2023-04-01T20:45:48;9.80;50.80
1011;DHT22;494;48.744;10.106;2023-04-01T20:48:59;9.90;50.90
1011;DHT22;494;48.744;10.106;2023-04-01T20:51:53;9.90;50.70
1011;DHT22;494;48.744;10.106;2023-04-01T20:54:39;9.90;50.60
1011;DHT22;494;48.744;10.106;2023-04-01T20:57:22;9.90;51.10
1011;DHT22;494;48.744;10.106;2023-04-01T21:03:12;10.00;50.20
1011;DHT22;494;48.744;10.106;2023-04-01T21:06:11;10.10;50.20
1011;DHT22;494;48.744;10.106;2023-04-01T21:09:00;10.20;50.00
1011;DHT22;494;48.744;10.106;2023-04-01T21:11:45;10.10;49.70
1011;DHT22;494;48.744;10.106;2023-04-01T21:14:46;10.10;50.00
1011;DHT22;494;48.744;10.106;2023-04-01T21:17:38;10.00;49.90
1011;DHT22;494;48.744;10.106;2023-04-01T21:20:28;10.00;50.40
1011;DHT22;494;48.744;10.106;2023-04-01T21:23:31;10.10;50.40
1011;DHT22;494;48.744;10.106;2023-04-01T21:26:26;10.10;49.80
1011;DHT22;494;48.744;10.106;2023-04-01T21:29:28;10.10;49.80
1011;DHT22;494;48.744;10.106;2023-04-01T21:32:20;10.10;49.60
1011;DHT22;494;48.744;10.106;2023-04-01T21:35:08;10.20;49.60
1011;DHT22;494;48.744;10.106;2023-04-01T21:41:18;10.40;49.60
1011;DHT22;494;48.744;10.106;2023-04-01T21:44:20;10.40;49.50
1011;DHT22;494;48.744;10.106;2023-04-01T21:51:12;10.50;49.60
1011;DHT22;494;48.744;10.106;2023-04-01T21:54:21;10.40;49.70
1011;DHT22;494;48.744;10.106;2023-04-01T21:57:38;10.40;49.80
1011;DHT22;494;48.744;10.106;2023-04-01T22:00:36;10.40;49.90
1011;DHT22;494;48.744;10.106;2023-04-01T22:03:45;10.40;50.00
1011;DHT22;494;48.744;10.106;2023-04-01T22:06:31;10.40;50.10
1011;DHT22;494;48.744;10.106;2023-04-01T22:09:11;10.40;50.20
1011;DHT22;494;48.744;10.106;2023-04-01T22:11:51;10.40;50.30
1011;DHT22;494;48.744;10.106;2023-04-01T22:14:33;10.40;50.30
1011;DHT22;494;48.744;10.106;2023-04-01T22:17:13;10.50;50.30
1011;DHT22;494;48.744;10.106;2023-04-01T22:19:55;10.50;50.30
1011;DHT22;494;48.744;10.106;2023-04-01T22:22:52;10.50;50.30
1011;DHT22;494;48.744;10.106;2023-04-01T22:25:34;10.50;50.50
1011;DHT22;494;48.744;10.106;2023-04-01T22:28:14;10.40;50.40
1011;DHT22;494;48.744;10.106;2023-04-01T22:30:50;10.50;50.60
1011;DHT22;494;48.744;10.106;2023-04-01T22:33:27;10.50;50.40
1011;DHT22;494;48.744;10.106;2023-04-01T22:36:09;10.30;50.70
1011;DHT22;494;48.744;10.106;2023-04-01T22:38:58;10.30;50.90
1011;DHT22;494;48.744;10.106;2023-04-01T22:41:49;10.20;50.90
1011;DHT22;494;48.744;10.106;2023-04-01T22:44:39;10.00;51.40
1011;DHT22;494;48.744;10.106;2023-04-01T22:47:24;9.90;52.20
1011;DHT22;494;48.744;10.106;2023-04-01T22:50:07;10.00;52.30
1011;DHT22;494;48.744;10.106;2023-04-01T22:52:46;9.90;52.20
1011;DHT22;494;48.744;10.106;2023-04-01T22:55:27;9.90;52.30
1011;DHT22;494;48.744;10.106;2023-04-01T22:58:01;9.90;51.80
1011;DHT22;494;48.744;10.106;2023-04-01T23:00:37;10.00;51.80
1011;DHT22;494;48.744;10.106;2023-04-01T23:03:14;10.00;51.90
1011;DHT22;494;48.744;10.106;2023-04-01T23:05:49;10.00;51.80
1011;DHT22;494;48.744;10.106;2023-04-01T23:11:33;9.90;51.40
1011;DHT22;494;48.744;10.106;2023-04-01T23:17:36;9.90;51.60
1011;DHT22;494;48.744;10.106;2023-04-01T23:20:32;9.90;51.60
1011;DHT22;494;48.744;10.106;2023-04-01T23:23:26;9.80;51.30
1011;DHT22;494;48.744;10.106;2023-04-01T23:26:09;9.80;51.60
1011;DHT22;494;48.744;10.106;2023-04-01T23:28:45;9.80;51.70
1011;DHT22;494;48.744;10.106;2023-04-01T23:31:35;9.80;51.60
1011;DHT22;494;48.744;10.106;2023-04-01T23:34:27;9.80;51.50
1011;DHT22;494;48.744;10.106;2023-04-01T23:37:02;9.80;51.70
1011;DHT22;494;48.744;10.106;2023-04-01T23:39:35;9.80;51.60
1011;DHT22;494;48.744;10.106;2023-04-01T23:42:07;9.70;50.90
1011;DHT22;494;48.744;10.106;2023-04-01T23:44:43;9.70;51.00
1011;DHT22;494;48.744;10.106;2023-04-01T23:47:16;9.50;51.80
1011;DHT22;494;48.744;10.106;2023-04-01T23:49:52;9.40;52.10
1011;DHT22;494;48.744;10.106;2023-04-01T23:52:25;9.40;52.30
1011;DHT22;494;48.744;10.106;2023-04-01T23:54:59;9.40;52.50
1011;DHT22;494;48.744;10.106;2023-04-01T23:57:34;9.40;52.50
